Indianapolis, Indiana
Traffic Map
Current Weather Conditions
Indianapolis, Indiana
Overcast Light Snow
Overcast
-6°
Feels Like: -13°
Wind Chill: -13° Ceiling: 900
Heat Index: -6° Visibility: 9mi
Dew Point: -8° Wind: 13mph
Humidity: 85% Direction: 280° (W)
Pressure: 29.72in Gusts: 0mph
Raw Report DataKIND 090854Z 28011KT 9SM -SN OVC009 M06/M08 A2972 RMK AO2 SLP072 P0000 60000 T10611083 56007
Traffic Incident Summary
Active as of:
Severity:
Category:
InformationThere was an issue retrieving the traffic information for this location. Please try a different location or try again shortly.
Advertisements
Track Severe Weather on mobile